Time,TemperatureF,DewpointF,PressureIn,WindDirection,WindDirectionDegrees,WindSpeedMPH,WindSpeedGustMPH,Humidity,HourlyPrecipIn,Conditions,Clouds,dailyrainin,SoftwareType,DateUTC
2013-11-24 00:30:00,17.5,11.8,29.42,ENE,78,3.0,7.0,78,0.00,,,0.00,Wunderground v.1.13,2013-11-24 05:30:00,
2013-11-24 01:00:00,17.4,12.3,29.41,NE,40,3.0,3.0,80,0.00,,,0.00,Wunderground v.1.13,2013-11-24 06:00:00,
2013-11-24 02:00:00,17.2,12.1,29.41,WNW,284,4.0,4.0,80,0.00,,,0.00,Wunderground v.1.13,2013-11-24 07:00:00,
2013-11-24 02:30:00,17.2,12.6,29.41,ENE,62,3.0,7.0,82,0.00,,,0.00,Wunderground v.1.13,2013-11-24 07:30:00,
2013-11-24 03:30:00,17.0,13.0,29.41,East,82,3.0,3.0,84,0.00,,,0.00,Wunderground v.1.13,2013-11-24 08:30:00,
2013-11-24 04:30:00,16.9,12.1,29.40,East,92,5.0,6.0,81,0.00,,,0.00,Wunderground v.1.13,2013-11-24 09:30:00,
2013-11-24 05:00:00,16.6,11.5,29.39,East,94,5.0,6.0,80,0.00,,,0.00,Wunderground v.1.13,2013-11-24 10:00:00,
2013-11-24 06:00:00,16.4,10.7,29.39,NE,42,5.0,5.0,78,0.00,,,0.00,Wunderground v.1.13,2013-11-24 11:00:00,
2013-11-24 07:00:00,16.0,9.5,29.39,East,92,6.0,6.0,75,0.00,,,0.00,Wunderground v.1.13,2013-11-24 12:00:00,
2013-11-24 07:30:00,15.8,9.6,29.40,ESE,107,6.0,7.0,76,0.00,,,0.00,Wunderground v.1.13,2013-11-24 12:30:00,
2013-11-24 08:00:00,16.1,9.9,29.40,East,91,6.0,6.0,76,0.00,,,0.00,Wunderground v.1.13,2013-11-24 13:00:00,
2013-11-24 08:30:00,16.4,9.9,29.40,East,90,6.0,21.0,75,0.00,,,0.00,Wunderground v.1.13,2013-11-24 13:30:00,
2013-11-24 09:00:00,16.5,10.3,29.40,ESE,109,6.0,11.0,76,0.00,,,0.00,Wunderground v.1.13,2013-11-24 14:00:00,
2013-11-24 09:30:00,16.9,10.3,29.40,ESE,109,5.0,5.0,75,0.00,,,0.00,Wunderground v.1.13,2013-11-24 14:30:00,
2013-11-24 10:00:00,17.2,9.7,29.41,ESE,113,7.0,7.0,72,0.00,,,0.00,Wunderground v.1.13,2013-11-24 15:00:00,
2013-11-24 10:30:00,17.4,9.6,29.41,East,87,7.0,7.0,71,0.00,,,0.00,Wunderground v.1.13,2013-11-24 15:30:00,
2013-11-24 11:00:00,17.9,9.4,29.41,East,90,7.0,7.0,69,0.00,,,0.00,Wunderground v.1.13,2013-11-24 16:00:00,
2013-11-24 12:00:00,18.4,9.9,29.41,South,175,7.0,7.0,69,0.00,,,0.00,Wunderground v.1.13,2013-11-24 17:00:00,
2013-11-24 12:30:00,18.4,10.2,29.41,East,93,8.0,11.0,70,0.00,,,0.00,Wunderground v.1.13,2013-11-24 17:30:00,
2013-11-24 13:00:00,17.9,9.4,29.42,East,92,9.0,9.0,69,0.00,,,0.00,Wunderground v.1.13,2013-11-24 18:00:00,
2013-11-24 13:30:00,17.9,10.1,29.43,East,96,7.0,7.0,71,0.00,,,0.00,Wunderground v.1.13,2013-11-24 18:30:00,
2013-11-24 14:00:00,17.7,10.2,29.45,SE,134,6.0,6.0,72,0.00,,,0.00,Wunderground v.1.13,2013-11-24 19:00:00,
2013-11-24 14:30:00,17.7,10.2,29.46,East,90,8.0,27.0,72,0.00,,,0.00,Wunderground v.1.13,2013-11-24 19:30:00,
2013-11-24 15:00:00,17.6,10.4,29.47,East,90,8.0,26.0,73,0.00,,,0.00,Wunderground v.1.13,2013-11-24 20:00:00,
2013-11-24 15:30:00,17.4,10.2,29.48,ENE,76,6.0,6.0,73,0.00,,,0.00,Wunderground v.1.13,2013-11-24 20:30:00,
2013-11-24 16:00:00,17.3,10.1,29.50,ESE,102,9.0,9.0,73,0.00,,,0.00,Wunderground v.1.13,2013-11-24 21:00:00,
2013-11-24 16:30:00,16.9,11.2,29.50,SSE,150,6.0,6.0,78,0.00,,,0.00,Wunderground v.1.13,2013-11-24 21:30:00,
2013-11-24 17:00:00,16.7,11.3,29.52,SSE,163,7.0,7.0,79,0.00,,,0.00,Wunderground v.1.13,2013-11-24 22:00:00,
2013-11-24 17:30:00,16.6,11.5,29.52,NNE,12,5.0,9.0,80,0.00,,,0.00,Wunderground v.1.13,2013-11-24 22:30:00,
2013-11-24 18:00:00,16.8,12.0,29.53,ESE,107,6.0,9.0,81,0.00,,,0.00,Wunderground v.1.13,2013-11-24 23:00:00,
2013-11-24 18:30:00,16.9,12.6,29.54,NE,53,6.0,6.0,83,0.00,,,0.00,Wunderground v.1.13,2013-11-24 23:30:00,
2013-11-24 19:00:00,17.2,12.4,29.54,SSE,160,7.0,8.0,81,0.00,,,0.00,Wunderground v.1.13,2013-11-25 00:00:00,
2013-11-24 19:30:00,17.4,12.6,29.55,SE,137,6.0,6.0,81,0.00,,,0.00,Wunderground v.1.13,2013-11-25 00:30:00,
2013-11-24 20:00:00,17.4,12.6,29.55,SSE,154,6.0,6.0,81,0.00,,,0.00,Wunderground v.1.13,2013-11-25 01:00:00,
2013-11-24 20:30:00,17.6,12.2,29.56,East,90,7.0,13.0,79,0.00,,,0.00,Wunderground v.1.13,2013-11-25 01:30:00,
2013-11-24 21:00:00,17.8,12.1,29.57,NE,48,6.0,8.0,78,0.00,,,0.00,Wunderground v.1.13,2013-11-25 02:00:00,
2013-11-24 21:30:00,18.1,12.1,29.58,East,83,9.0,9.0,77,0.00,,,0.00,Wunderground v.1.13,2013-11-25 02:30:00,
2013-11-24 22:00:00,18.0,12.3,29.59,SSE,154,8.0,14.0,78,0.00,,,0.00,Wunderground v.1.13,2013-11-25 03:00:00,
2013-11-24 22:30:00,17.9,12.5,29.59,East,95,9.0,9.0,79,0.00,,,0.00,Wunderground v.1.13,2013-11-25 03:30:00,
2013-11-24 23:00:00,17.7,12.6,29.61,ESE,119,7.0,8.0,80,0.00,,,0.00,Wunderground v.1.13,2013-11-25 04:00:00,
2013-11-24 23:30:00,17.6,11.9,29.63,SSW,192,7.0,8.0,78,0.00,,,0.00,Wunderground v.1.13,2013-11-25 04:30:00,